Time;durP1;ratioP1;P1;durP2;ratioP2;P2;SDS_P1;SDS_P2;PMS_P1;PMS_P2;Temp;Humidity;BMP_temperature;BMP_pressure;BME280_temperature;BME280_humidity;BME280_pressure;Samples;Min_cycle;Max_cycle;Signal;HPM_P1;HPM_P2
2022/05/20 00:00:28;;;;;;;0.08;0.08;;;;;;;15.09;55.10;101013.88;7364431;19;20014;-58
2022/05/20 00:02:53;;;;;;;0.03;0.03;;;;;;;15.08;54.55;101016.56;7362183;19;20031;-56
2022/05/20 00:05:19;;;;;;;0.08;0.08;;;;;;;15.04;55.59;101015.81;7366019;19;20010;-58
2022/05/20 00:07:44;;;;;;;0.00;0.00;;;;;;;15.03;55.22;101008.84;7362852;19;20006;-57
2022/05/20 00:10:12;;;;;;;0.00;0.00;;;;;;;15.01;55.63;101010.69;7365921;19;20475;-55
2022/05/20 00:12:38;;;;;;;0.00;0.00;;;;;;;15.00;55.76;101008.94;7365637;19;20079;-57
2022/05/20 00:15:09;;;;;;;0.00;0.00;;;;;;;14.99;55.57;101001.97;7366500;19;20044;-57
2022/05/20 00:17:34;;;;;;;0.00;0.00;;;;;;;14.98;56.39;101001.13;7365403;19;20006;-58
2022/05/20 00:20:01;;;;;;;0.00;0.00;;;;;;;14.98;55.54;101005.53;7365845;19;20013;-57
2022/05/20 00:22:26;;;;;;;0.10;0.10;;;;;;;14.95;56.08;100998.63;7363738;19;20015;-57
2022/05/20 00:27:35;;;;;;;0.00;0.00;;;;;;;14.95;56.26;101001.25;7362113;19;20040;-57
2022/05/20 00:30:01;;;;;;;0.00;0.00;;;;;;;14.93;56.10;100994.31;7365655;19;20018;-57
2022/05/20 00:32:26;;;;;;;0.00;0.00;;;;;;;14.94;55.80;101006.53;7363873;19;20010;-58
2022/05/20 00:34:52;;;;;;;0.00;0.00;;;;;;;14.95;56.22;100997.72;7363632;19;20037;-57
2022/05/20 00:37:17;;;;;;;0.00;0.00;;;;;;;14.93;56.62;100995.16;7363725;19;20589;-58
2022/05/20 00:39:42;;;;;;;0.00;0.00;;;;;;;14.93;56.62;101000.41;7365968;19;20013;-58
2022/05/20 00:42:10;;;;;;;0.00;0.00;;;;;;;14.94;56.22;100988.13;7362142;19;20014;-59
2022/05/20 00:44:36;;;;;;;0.00;0.00;;;;;;;14.93;56.89;100991.69;7357763;19;20077;-58
2022/05/20 00:47:01;;;;;;;0.03;0.03;;;;;;;14.93;56.61;100986.41;7360366;19;20078;-56
2022/05/20 00:49:29;;;;;;;0.10;0.10;;;;;;;14.78;56.48;100962.38;7363630;19;20014;-57
2022/05/20 00:51:54;;;;;;;0.00;0.00;;;;;;;14.90;56.61;100976.00;7363666;19;20043;-55
2022/05/20 00:54:24;;;;;;;0.00;0.00;;;;;;;14.89;56.39;100975.16;7363628;19;20022;-57
2022/05/20 00:57:03;;;;;;;0.00;0.00;;;;;;;14.90;55.81;100970.75;7363708;19;20367;-57
2022/05/20 00:59:30;;;;;;;0.00;0.00;;;;;;;14.85;57.17;100972.69;7362095;19;20011;-56
2022/05/20 01:02:00;;;;;;;0.00;0.00;;;;;;;14.85;56.45;100968.31;7360281;19;20018;-57
2022/05/20 01:04:26;;;;;;;0.00;0.00;;;;;;;14.84;57.31;100970.97;7355144;19;20010;-56
2022/05/20 01:06:53;;;;;;;0.00;0.00;;;;;;;14.84;57.14;100968.34;7356914;19;20786;-56
2022/05/20 01:09:18;;;;;;;0.00;0.00;;;;;;;14.81;57.05;100965.84;7358646;19;20617;-58
2022/05/20 01:11:44;;;;;;;0.10;0.10;;;;;;;14.79;56.79;100966.72;7356329;19;20007;-56
2022/05/20 01:14:11;;;;;;;0.00;0.00;;;;;;;14.65;56.77;100945.34;7358692;19;20034;-56
2022/05/20 01:16:37;;;;;;;0.00;0.00;;;;;;;14.77;56.91;100957.19;7358261;19;20495;-55
2022/05/20 01:19:05;;;;;;;0.05;0.05;;;;;;;14.74;57.71;100955.53;7358795;19;20425;-59
2022/05/20 01:21:31;;;;;;;0.00;0.00;;;;;;;14.71;57.88;100947.75;7362571;19;20021;-59
2022/05/20 01:24:02;;;;;;;0.00;0.00;;;;;;;14.64;57.34;100938.34;7362227;19;20093;-57
2022/05/20 01:26:27;;;;;;;0.00;0.00;;;;;;;14.68;57.43;100942.59;7360540;19;20074;-57
2022/05/20 01:28:53;;;;;;;0.00;0.00;;;;;;;14.66;57.61;100952.31;7363464;19;20025;-57
2022/05/20 01:31:18;;;;;;;0.00;0.00;;;;;;;14.64;57.32;100954.13;7362691;19;20025;-55
2022/05/20 01:33:46;;;;;;;0.00;0.00;;;;;;;14.63;57.85;100955.06;7361562;19;20006;-57
2022/05/20 01:36:16;;;;;;;0.00;0.00;;;;;;;14.64;57.85;100948.03;7363130;19;20014;-57
2022/05/20 01:38:42;;;;;;;0.08;0.08;;;;;;;14.61;57.28;100943.75;7363374;19;20035;-58
2022/05/20 01:41:11;;;;;;;0.00;0.00;;;;;;;14.61;57.47;100951.63;7363378;19;20010;-57
2022/05/20 01:43:52;;;;;;;0.00;0.00;;;;;;;14.60;56.25;100947.28;7363759;19;20991;-58
2022/05/20 01:46:38;;;;;;;0.00;0.00;;;;;;;14.59;56.55;100949.94;7363648;19;20470;-58
2022/05/20 01:49:16;;;;;;;0.00;0.00;;;;;;;14.55;56.60;100949.22;7357920;19;20036;-57
2022/05/20 01:52:03;;;;;;;0.00;0.00;;;;;;;14.52;57.61;100938.81;7362970;19;20011;-57
2022/05/20 01:54:46;;;;;;;0.00;0.00;;;;;;;14.50;57.08;100956.41;7362753;19;20022;-57
2022/05/20 01:57:24;;;;;;;0.10;0.10;;;;;;;14.47;57.09;100952.09;7362321;19;20015;-57
2022/05/20 01:59:56;;;;;;;0.00;0.00;;;;;;;14.32;57.62;100926.34;7354790;19;20011;-57
2022/05/20 02:02:32;;;;;;;0.00;0.00;;;;;;;14.39;56.79;100947.97;7364157;19;20018;-57
2022/05/20 02:05:19;;;;;;;0.10;0.10;;;;;;;14.34;56.74;100928.91;7364639;19;20007;-57
2022/05/20 02:07:49;;;;;;;0.00;0.00;;;;;;;14.35;57.31;100930.63;7361692;19;20022;-58
2022/05/20 02:10:22;;;;;;;0.10;0.10;;;;;;;14.33;57.68;100937.69;7363278;19;20031;-57
2022/05/20 02:12:53;;;;;;;0.00;0.00;;;;;;;14.30;57.78;100938.69;7362607;19;20018;-57
2022/05/20 02:15:25;;;;;;;0.00;0.00;;;;;;;14.17;57.59;100911.09;7362169;19;20011;-57
2022/05/20 02:17:59;;;;;;;0.00;0.00;;;;;;;14.26;57.18;100926.53;7360680;19;20010;-58
2022/05/20 02:20:40;;;;;;;0.00;0.00;;;;;;;14.11;56.49;100899.03;7363106;19;20006;-58
2022/05/20 02:23:12;;;;;;;0.00;0.00;;;;;;;14.20;57.03;100922.38;7360013;19;20848;-57
2022/05/20 02:25:42;;;;;;;0.00;0.00;;;;;;;13.82;57.27;100868.50;7365423;19;20011;-56
2022/05/20 02:28:35;;;;;;;0.00;0.00;;;;;;;14.16;56.89;100910.25;7361847;19;20478;-57
2022/05/20 02:31:02;;;;;;;0.00;0.00;;;;;;;14.12;57.72;100913.88;7260712;19;2004423;-58
2022/05/20 02:33:28;;;;;;;0.00;0.00;;;;;;;14.08;57.56;100909.63;7362301;19;20007;-57
2022/05/20 02:36:08;;;;;;;0.00;0.00;;;;;;;14.10;56.52;100918.34;7359123;19;20006;-57
2022/05/20 02:38:36;;;;;;;0.00;0.00;;;;;;;14.06;57.35;100898.34;7363220;19;20469;-57
2022/05/20 02:41:02;;;;;;;0.00;0.00;;;;;;;14.02;57.51;100909.84;7362245;19;20012;-56
2022/05/20 02:43:27;;;;;;;0.00;0.00;;;;;;;14.02;57.48;100912.47;7364282;19;20530;-56
2022/05/20 02:45:53;;;;;;;0.00;0.00;;;;;;;13.99;57.28;100902.09;7362023;19;20015;-59
2022/05/20 02:48:21;;;;;;;0.00;0.00;;;;;;;13.98;57.29;100906.44;7359287;19;20094;-59
2022/05/20 02:50:49;;;;;;;0.00;0.00;;;;;;;13.96;56.83;100900.41;7363704;19;20488;-57
2022/05/20 02:53:14;;;;;;;0.00;0.00;;;;;;;13.93;57.80;100895.25;7361813;19;20029;-56
2022/05/20 02:55:40;;;;;;;0.00;0.00;;;;;;;13.90;57.52;100886.63;7361904;19;20019;-58
2022/05/20 02:58:05;;;;;;;0.00;0.00;;;;;;;13.89;57.99;100884.91;7357802;19;20030;-58
2022/05/20 03:05:59;;;;;;;0.00;0.00;;;;;;;13.51;58.20;100837.16;7354346;19;20031;-57
2022/05/20 03:08:24;;;;;;;0.08;0.08;;;;;;;13.80;58.17;100895.72;7364441;19;20014;-57
2022/05/20 03:10:50;;;;;;;0.00;0.00;;;;;;;13.72;58.56;100890.72;7370215;19;20542;-57
2022/05/20 03:13:16;;;;;;;0.00;0.00;;;;;;;13.74;58.36;100889.78;7371930;19;20003;-56
2022/05/20 03:15:42;;;;;;;0.00;0.00;;;;;;;13.73;58.74;100882.78;7368582;19;20628;-57
2022/05/20 03:18:09;;;;;;;0.00;0.00;;;;;;;13.70;58.78;100877.66;7362481;19;20029;-58
2022/05/20 03:20:35;;;;;;;0.00;0.00;;;;;;;13.68;58.71;100876.81;7363789;19;20021;-57
2022/05/20 03:23:00;;;;;;;0.00;0.00;;;;;;;13.67;58.98;100867.25;7365961;19;20026;-57
2022/05/20 03:25:26;;;;;;;0.00;0.00;;;;;;;13.66;58.89;100872.56;7368632;19;20094;-57
2022/05/20 03:27:52;;;;;;;0.00;0.00;;;;;;;13.61;58.80;100870.06;7370393;19;20014;-55
2022/05/20 03:30:18;;;;;;;0.00;0.00;;;;;;;13.61;58.88;100870.06;7367992;19;20015;-57
2022/05/20 03:32:44;;;;;;;0.03;0.03;;;;;;;13.60;59.14;100857.88;7370310;19;20006;-55
2022/05/20 03:35:11;;;;;;;0.00;0.00;;;;;;;13.57;58.69;100855.34;7370110;19;20371;-56
2022/05/20 03:37:36;;;;;;;0.00;0.00;;;;;;;13.57;58.85;100851.84;7368077;19;20354;-57
2022/05/20 03:40:03;;;;;;;0.00;0.00;;;;;;;13.56;59.33;100855.38;7370350;19;20589;-57
2022/05/20 03:42:29;;;;;;;0.00;0.00;;;;;;;13.53;59.22;100851.09;7368637;19;20018;-58
2022/05/20 03:44:54;;;;;;;0.00;0.00;;;;;;;13.53;59.50;100851.09;7369084;19;20348;-58
2022/05/20 03:47:20;;;;;;;0.00;0.00;;;;;;;13.41;59.45;100834.00;7368881;19;20010;-59
2022/05/20 03:49:46;;;;;;;0.00;0.00;;;;;;;13.50;59.70;100843.34;7368082;19;20010;-57
2022/05/20 03:52:12;;;;;;;0.00;0.00;;;;;;;13.49;59.45;100844.25;7370163;19;20014;-57
2022/05/20 03:54:38;;;;;;;0.00;0.00;;;;;;;13.49;59.54;100844.25;7369950;19;20014;-57
2022/05/20 03:57:05;;;;;;;0.00;0.00;;;;;;;13.31;59.26;100813.34;7369045;19;20002;-56
2022/05/20 03:59:33;;;;;;;0.00;0.00;;;;;;;13.48;59.69;100837.25;7368638;19;20011;-57
2022/05/20 04:01:59;;;;;;;0.00;0.00;;;;;;;13.46;59.94;100828.59;7368573;19;20743;-56
2022/05/20 04:04:28;;;;;;;0.00;0.00;;;;;;;13.45;59.77;100822.50;7369008;19;20051;-57
2022/05/20 04:06:54;;;;;;;0.00;0.00;;;;;;;13.45;59.32;100832.13;7371101;19;20095;-57
2022/05/20 04:09:20;;;;;;;0.00;0.00;;;;;;;13.45;60.08;100832.13;7365766;19;20100;-57
2022/05/20 04:11:48;;;;;;;0.05;0.05;;;;;;;13.44;60.35;100840.91;7369007;19;20006;-57
2022/05/20 04:14:14;;;;;;;0.00;0.00;;;;;;;13.43;59.98;100831.31;7368226;19;20466;-58
2022/05/20 04:16:39;;;;;;;0.00;0.00;;;;;;;13.43;60.05;100833.94;7369503;19;20034;-56
2022/05/20 04:19:05;;;;;;;0.00;0.00;;;;;;;13.43;60.05;100829.56;7364550;19;20006;-56
2022/05/20 04:21:30;;;;;;;0.03;0.03;;;;;;;13.42;59.84;100830.44;7368776;19;20006;-57
2022/05/20 04:23:56;;;;;;;0.00;0.00;;;;;;;13.40;59.94;100826.19;7368678;19;20014;-57
2022/05/20 04:26:21;;;;;;;0.08;0.08;;;;;;;13.40;59.83;100836.66;7369024;19;20025;-57
2022/05/20 04:28:47;;;;;;;0.00;0.00;;;;;;;13.38;59.40;100826.22;7367181;19;20050;-57
2022/05/20 04:31:12;;;;;;;0.00;0.00;;;;;;;13.39;59.14;100827.94;7369664;19;20032;-57
2022/05/20 04:33:38;;;;;;;0.00;0.00;;;;;;;13.38;59.70;100820.09;7367946;19;20011;-59
2022/05/20 04:36:05;;;;;;;0.00;0.00;;;;;;;13.37;59.55;100818.41;7369002;19;21076;-57
2022/05/20 04:38:31;;;;;;;0.00;0.00;;;;;;;13.30;60.11;100811.66;7367552;19;20010;-58
2022/05/20 04:49:10;;;;;;;0.00;0.00;;;;;;;13.31;59.98;100814.22;7366997;19;20034;-58
2022/05/20 04:51:37;;;;;;;0.00;0.00;;;;;;;13.32;60.13;100800.19;7368804;19;20026;-58
2022/05/20 04:56:49;;;;;;;0.00;0.00;;;;;;;13.31;60.10;100802.84;7368013;19;20021;-57
2022/05/20 04:59:15;;;;;;;0.00;0.00;;;;;;;13.36;60.41;100816.69;7366932;19;22912;-58
2022/05/20 05:01:41;;;;;;;0.10;0.10;;;;;;;13.34;60.12;100813.25;7367310;19;20054;-58
2022/05/20 05:04:07;;;;;;;0.10;0.10;;;;;;;13.39;59.52;100808.72;7366187;19;20409;-58
2022/05/20 05:06:33;;;;;;;0.10;0.10;;;;;;;13.41;59.80;100804.28;7369303;19;20011;-56
2022/05/20 05:08:58;;;;;;;0.10;0.10;;;;;;;13.44;60.13;100806.81;7367551;19;20016;-57
2022/05/20 05:11:23;;;;;;;0.00;0.00;;;;;;;13.46;60.07;100807.59;7366667;19;20034;-58
2022/05/20 05:13:49;;;;;;;0.00;0.00;;;;;;;13.43;60.55;100799.81;7370295;19;20038;-58
2022/05/20 05:16:14;;;;;;;0.05;0.05;;;;;;;13.35;60.09;100783.50;7365268;19;20013;-57
2022/05/20 05:18:40;;;;;;;0.00;0.00;;;;;;;13.52;60.43;100809.16;7367147;19;20010;-57
2022/05/20 05:21:05;;;;;;;0.10;0.10;;;;;;;13.55;60.17;100812.56;7366603;19;20006;-57
2022/05/20 05:23:31;;;;;;;0.00;0.00;;;;;;;13.59;60.46;100815.94;7364926;19;20010;-56
2022/05/20 05:25:57;;;;;;;0.00;0.00;;;;;;;13.62;60.07;100806.19;7365928;19;20019;-59
2022/05/20 05:28:22;;;;;;;0.00;0.00;;;;;;;13.65;59.68;100792.97;7367468;19;20041;-56
2022/05/20 05:30:51;;;;;;;0.00;0.00;;;;;;;13.66;59.73;100786.81;7364325;19;20043;-58
2022/05/20 05:33:18;;;;;;;0.10;0.10;;;;;;;13.72;59.86;100793.63;7364332;19;20030;-58
2022/05/20 05:35:43;;;;;;;0.00;0.00;;;;;;;13.65;60.16;100781.63;7366955;19;20006;-56
2022/05/20 05:38:09;;;;;;;0.10;0.10;;;;;;;13.65;59.76;100761.47;7367117;19;20017;-57
2022/05/20 05:40:34;;;;;;;0.00;0.00;;;;;;;13.81;59.80;100789.81;7365740;19;20007;-57
2022/05/20 05:43:01;;;;;;;0.00;0.00;;;;;;;13.83;60.15;100786.22;7365781;19;20011;-58
2022/05/20 05:45:28;;;;;;;0.10;0.10;;;;;;;13.77;60.07;100766.28;7364475;19;20002;-57
2022/05/20 05:47:58;;;;;;;0.00;0.00;;;;;;;13.79;59.11;100747.00;7365756;19;20006;-57
2022/05/20 05:50:24;;;;;;;0.10;0.10;;;;;;;13.90;59.62;100763.25;7364630;19;20095;-58
2022/05/20 05:53:20;;;;;;;0.00;0.00;;;;;;;14.02;58.70;100781.19;7366183;19;20466;-57
2022/05/20 05:55:47;;;;;;;0.00;0.00;;;;;;;14.03;59.65;100782.91;7259026;19;2004025;-57
2022/05/20 05:58:14;;;;;;;0.00;0.00;;;;;;;13.90;59.67;100765.88;7363459;19;20025;-59
2022/05/20 06:00:41;;;;;;;0.00;0.00;;;;;;;14.09;59.49;100777.44;7360880;19;20021;-58
2022/05/20 06:03:07;;;;;;;0.00;0.00;;;;;;;14.05;60.07;100775.84;7359913;19;20089;-58
2022/05/20 06:05:34;;;;;;;0.00;0.00;;;;;;;14.15;59.97;100777.22;7362051;19;20006;-57
2022/05/20 06:07:59;;;;;;;0.00;0.00;;;;;;;14.19;59.56;100773.56;7361424;19;20419;-59
2022/05/20 06:10:26;;;;;;;0.00;0.00;;;;;;;14.27;59.36;100779.38;7362601;19;20111;-58
2022/05/20 06:12:51;;;;;;;0.00;0.00;;;;;;;14.25;59.14;100773.34;7360940;19;20412;-56
2022/05/20 06:15:22;;;;;;;0.00;0.00;;;;;;;14.31;59.10;100771.41;7361777;19;20130;-57
2022/05/20 06:17:47;;;;;;;0.00;0.00;;;;;;;14.41;58.98;100778.03;7360806;19;20010;-58
2022/05/20 06:20:13;;;;;;;0.00;0.00;;;;;;;14.46;58.82;100786.59;7356801;19;20007;-57
2022/05/20 06:22:38;;;;;;;0.00;0.00;;;;;;;14.44;59.36;100768.25;7358897;19;20011;-57
2022/05/20 06:25:04;;;;;;;0.10;0.10;;;;;;;14.55;58.80;100773.16;7356892;19;20018;-59
2022/05/20 06:27:32;;;;;;;0.00;0.00;;;;;;;14.50;58.92;100760.19;7357725;19;20466;-59
2022/05/20 06:29:57;;;;;;;0.10;0.10;;;;;;;14.58;58.81;100767.75;7359450;19;20014;-58
2022/05/20 06:32:23;;;;;;;0.10;0.10;;;;;;;14.67;58.31;100772.66;7360420;19;20012;-59
2022/05/20 06:40:19;;;;;;;0.00;0.00;;;;;;;14.77;58.30;100779.28;7360748;19;20019;-58
2022/05/20 06:42:44;;;;;;;0.00;0.00;;;;;;;14.81;58.56;100784.44;7361594;19;20814;-59
2022/05/20 06:45:12;;;;;;;0.00;0.00;;;;;;;14.85;57.92;100778.13;7367346;19;20015;-58
2022/05/20 06:47:37;;;;;;;;;;;;;;;14.93;57.17;100781.31;7366960;19;20022;-59
2022/05/20 06:50:03;;;;;;;0.00;0.00;;;;;;;14.94;57.83;100780.41;7358051;19;19922;-58
2022/05/20 06:52:29;;;;;;;0.00;0.00;;;;;;;14.97;57.60;100767.13;7362755;19;20015;-57
2022/05/20 06:54:54;;;;;;;0.08;0.08;;;;;;;14.98;57.70;100763.59;7364851;19;20027;-58
2022/05/20 06:57:21;;;;;;;0.03;0.03;;;;;;;15.02;57.60;100765.19;7366777;19;20039;-57
2022/05/20 06:59:47;;;;;;;0.00;0.00;;;;;;;15.01;57.92;100755.59;7366340;19;20014;-58
2022/05/20 07:02:13;;;;;;;0.00;0.00;;;;;;;15.03;58.20;100756.38;7366376;19;20014;-58
2022/05/20 07:04:38;;;;;;;0.00;0.00;;;;;;;15.07;57.66;100757.97;7368217;19;20006;-59
2022/05/20 07:07:05;;;;;;;0.10;0.10;;;;;;;15.12;57.92;100753.38;7363039;19;20058;-58
2022/05/20 07:09:31;;;;;;;0.00;0.00;;;;;;;15.15;57.57;100761.13;7366470;19;20597;-58
2022/05/20 07:11:57;;;;;;;0.00;0.00;;;;;;;15.19;57.88;100753.97;7366811;19;20042;-58
2022/05/20 07:14:22;;;;;;;0.10;0.10;;;;;;;15.23;57.66;100756.41;7365153;19;20681;-58
2022/05/20 07:16:48;;;;;;;0.00;0.00;;;;;;;15.28;57.64;100758.84;7366490;19;20399;-60
2022/05/20 07:19:14;;;;;;;0.00;0.00;;;;;;;15.28;57.77;100741.28;7363746;19;20011;-58
2022/05/20 07:21:39;;;;;;;0.00;0.00;;;;;;;15.29;57.70;100734.25;7359273;19;20007;-59
2022/05/20 07:24:05;;;;;;;0.03;0.03;;;;;;;15.42;58.00;100738.09;7364924;19;20010;-59
2022/05/20 07:26:31;;;;;;;0.00;0.00;;;;;;;15.51;57.29;100737.72;7366419;19;20010;-58
2022/05/20 07:28:57;;;;;;;0.00;0.00;;;;;;;15.51;57.43;100727.19;7364885;19;20027;-59
2022/05/20 07:31:24;;;;;;;0.10;0.10;;;;;;;15.32;57.61;100685.00;7366183;19;20026;-58
2022/05/20 07:33:52;;;;;;;0.00;0.00;;;;;;;15.62;58.00;100731.97;7366022;19;20031;-59
2022/05/20 07:36:18;;;;;;;0.00;0.00;;;;;;;15.74;57.63;100728.84;7367163;19;20018;-59
2022/05/20 07:38:44;;;;;;;0.00;0.00;;;;;;;15.80;57.33;100739.09;7368010;19;20348;-59
2022/05/20 07:41:10;;;;;;;0.00;0.00;;;;;;;15.86;56.60;100730.06;7365626;19;20006;-58
2022/05/20 07:43:36;;;;;;;0.00;0.00;;;;;;;15.89;56.76;100722.03;7364587;19;20034;-57
2022/05/20 07:46:01;;;;;;;0.08;0.08;;;;;;;15.93;56.83;100728.03;7364762;19;20006;-59
2022/05/20 07:48:27;;;;;;;0.00;0.00;;;;;;;15.95;56.44;100728.81;7365049;19;20014;-58
2022/05/20 07:50:57;;;;;;;0.00;0.00;;;;;;;16.00;56.62;100729.47;7366370;19;20465;-58
2022/05/20 07:53:37;;;;;;;0.10;0.10;;;;;;;16.03;56.32;100724.06;7366204;19;20009;-59
2022/05/20 07:56:19;;;;;;;0.10;0.10;;;;;;;16.10;56.01;100720.22;7368421;19;20010;-59
2022/05/20 07:59:02;;;;;;;0.00;0.00;;;;;;;16.11;56.62;100714.03;7361671;19;20451;-57
2022/05/20 08:01:31;;;;;;;0.03;0.03;;;;;;;16.09;56.62;100702.72;7366045;19;20013;-58
2022/05/20 08:06:58;;;;;;;0.00;0.00;;;;;;;16.27;56.19;100707.16;7265739;19;2004624;-59
2022/05/20 08:09:25;;;;;;;0.10;0.10;;;;;;;16.32;56.35;100691.97;7368924;19;20025;-57
2022/05/20 08:11:50;;;;;;;0.05;0.05;;;;;;;16.44;55.86;100692.31;7369934;19;20891;-56
2022/05/20 08:14:16;;;;;;;0.00;0.00;;;;;;;16.54;55.52;100693.59;7357560;19;20014;-58
2022/05/20 08:16:41;;;;;;;0.10;0.10;;;;;;;16.64;55.18;100691.38;7368636;19;20026;-58
2022/05/20 08:19:07;;;;;;;0.10;0.10;;;;;;;16.70;55.27;100673.47;7347336;19;20110;-59
2022/05/20 08:21:32;;;;;;;0.10;0.10;;;;;;;16.82;54.93;100680.81;7367548;19;20068;-58
2022/05/20 08:23:58;;;;;;;0.00;0.00;;;;;;;16.84;54.20;100678.97;7368935;19;20888;-59
2022/05/20 08:26:23;;;;;;;0.10;0.10;;;;;;;16.84;54.34;100642.03;7367675;19;20035;-59
2022/05/20 08:28:49;;;;;;;0.10;0.10;;;;;;;17.01;53.63;100662.31;7369787;19;20010;-59
2022/05/20 08:31:15;;;;;;;0.10;0.10;;;;;;;17.08;53.43;100660.19;7366065;19;20609;-58
2022/05/20 08:33:41;;;;;;;0.10;0.10;;;;;;;17.10;53.56;100653.06;7368710;19;20006;-58
2022/05/20 08:36:06;;;;;;;0.10;0.10;;;;;;;17.11;53.12;100652.13;7366480;19;20006;-58
2022/05/20 08:38:32;;;;;;;0.00;0.00;;;;;;;17.19;52.74;100663.16;7368180;19;20010;-58
2022/05/20 08:40:59;;;;;;;0.00;0.00;;;;;;;17.17;53.17;100651.81;7366123;19;20010;-57
2022/05/20 08:43:29;;;;;;;0.10;0.10;;;;;;;17.24;52.76;100641.81;7369348;19;20010;-58
2022/05/20 08:45:54;;;;;;;0.10;0.10;;;;;;;17.26;53.10;100656.63;7364952;19;20395;-57
2022/05/20 08:48:20;;;;;;;0.00;0.00;;;;;;;17.30;53.47;100646.78;7369824;19;20090;-58
2022/05/20 08:50:52;;;;;;;0.00;0.00;;;;;;;17.36;53.54;100646.47;7363128;19;20006;-58
2022/05/20 08:53:18;;;;;;;0.10;0.10;;;;;;;17.38;53.54;100642.78;7366548;19;20018;-58
2022/05/20 08:55:43;;;;;;;0.10;0.10;;;;;;;17.46;53.23;100638.91;7368390;19;20045;-58
2022/05/20 08:58:13;;;;;;;0.10;0.10;;;;;;;17.55;53.56;100625.25;7368577;19;20012;-58
2022/05/20 09:00:38;;;;;;;0.10;0.10;;;;;;;17.64;54.03;100630.91;7365242;19;20006;-58
2022/05/20 09:03:06;;;;;;;0.00;0.00;;;;;;;17.78;53.17;100632.81;7367992;19;20009;-59
2022/05/20 09:05:36;;;;;;;0.03;0.03;;;;;;;17.89;53.02;100621.66;7365126;19;20013;-58
2022/05/20 09:08:04;;;;;;;0.08;0.08;;;;;;;17.97;52.76;100624.75;7366507;19;20092;-59
2022/05/20 09:10:35;;;;;;;0.10;0.10;;;;;;;18.05;52.61;100592.63;7367552;19;20011;-58
2022/05/20 09:15:43;;;;;;;0.00;0.00;;;;;;;18.25;52.04;100612.63;7366259;19;20347;-59
2022/05/20 09:16:13;;;;;;;0.10;0.10;;;;;;;18.31;51.88;100614.97;7262542;19;2004371;-59
2022/05/20 09:18:41;;;;;;;0.00;0.00;;;;;;;18.36;51.40;100605.84;7365642;19;20043;-58
2022/05/20 09:21:35;;;;;;;0.10;0.10;;;;;;;18.62;52.25;100617.56;7365886;19;20010;-58
2022/05/20 09:24:03;;;;;;;0.00;0.00;;;;;;;18.70;51.05;100611.84;7261625;19;2005083;-60
2022/05/20 09:26:37;;;;;;;0.00;0.00;;;;;;;18.89;51.33;100604.56;7368964;19;20014;-58
2022/05/20 09:29:09;;;;;;;0.10;0.10;;;;;;;19.04;51.03;100609.88;7364330;19;20010;-59
2022/05/20 09:31:48;;;;;;;0.00;0.00;;;;;;;19.21;51.13;100601.81;7368065;19;20435;-59
2022/05/20 09:34:25;;;;;;;0.08;0.08;;;;;;;19.42;51.68;100610.25;7364878;19;20018;-59
2022/05/20 09:37:03;;;;;;;0.00;0.00;;;;;;;19.70;50.55;100601.47;7366843;19;20003;-59
2022/05/20 09:39:38;;;;;;;0.10;0.10;;;;;;;20.08;51.11;100592.91;7365726;19;20014;-59
2022/05/20 09:42:19;;;;;;;0.00;0.00;;;;;;;20.49;48.92;100592.91;7367834;19;20013;-58
2022/05/20 09:44:50;;;;;;;0.00;0.00;;;;;;;20.72;48.51;100591.38;7364282;19;20006;-57
2022/05/20 09:47:32;;;;;;;0.00;0.00;;;;;;;20.93;47.56;100607.66;7364373;19;20025;-59
2022/05/20 09:50:13;;;;;;;0.10;0.10;;;;;;;21.07;46.31;100582.84;7366352;19;20017;-58
2022/05/20 09:52:53;;;;;;;0.03;0.03;;;;;;;21.13;46.09;100588.56;7365719;19;20960;-58
2022/05/20 09:55:34;;;;;;;0.10;0.10;;;;;;;21.16;45.22;100566.28;7364879;19;20255;-58
2022/05/20 09:58:16;;;;;;;0.00;0.00;;;;;;;21.11;45.68;100573.72;7366047;19;20044;-58
2022/05/20 10:00:48;;;;;;;0.00;0.00;;;;;;;21.04;45.22;100578.59;7365710;19;20770;-58
2022/05/20 10:03:24;;;;;;;0.10;0.10;;;;;;;21.04;45.35;100578.59;7362802;19;20017;-58
2022/05/20 10:06:02;;;;;;;0.03;0.03;;;;;;;21.06;45.13;100586.44;7366510;19;20013;-58
2022/05/20 10:08:35;;;;;;;0.10;0.10;;;;;;;21.05;44.29;100564.38;7365897;19;20024;-57
2022/05/20 10:11:12;;;;;;;0.00;0.00;;;;;;;20.97;44.71;100556.91;7364615;19;20014;-58
2022/05/20 10:13:53;;;;;;;0.10;0.10;;;;;;;20.90;45.40;100571.56;7363427;19;20469;-59
2022/05/20 10:16:50;;;;;;;0.10;0.10;;;;;;;20.87;45.83;100563.78;7365090;19;20031;-59
2022/05/20 10:19:34;;;;;;;0.10;0.10;;;;;;;20.89;45.78;100559.25;7262598;19;2004696;-59
2022/05/20 10:22:13;;;;;;;0.10;0.10;;;;;;;20.90;45.95;100566.25;7365119;19;20018;-58
2022/05/20 10:24:43;;;;;;;0.10;0.10;;;;;;;20.87;45.55;100561.13;7364555;19;20010;-57
2022/05/20 10:27:12;;;;;;;0.10;0.10;;;;;;;20.93;45.59;100557.22;7362614;19;20014;-58
2022/05/20 10:33:07;;;;;;;0.00;0.00;;;;;;;20.90;46.12;100555.63;7157143;19;2005160;-60
2022/05/20 10:36:02;;;;;;;0.00;0.00;;;;;;;20.89;46.62;100548.63;7364310;19;20756;-58
2022/05/20 10:38:57;;;;;;;0.03;0.03;;;;;;;20.87;46.72;100549.69;7261816;19;2004456;-59
2022/05/20 10:41:47;;;;;;;0.10;0.10;;;;;;;20.88;47.16;100546.94;7262720;19;2004028;-58
2022/05/20 10:48:34;;;;;;;0.10;0.10;;;;;;;21.06;46.36;100543.97;7160541;19;2005119;-59
2022/05/20 10:51:18;;;;;;;0.00;0.00;;;;;;;21.14;45.74;100544.31;7160293;19;2005852;-59
2022/05/20 10:54:02;;;;;;;0.10;0.10;;;;;;;21.08;44.85;100550.84;7363833;19;20031;-57
2022/05/20 10:57:09;;;;;;;0.10;0.10;;;;;;;21.06;45.15;100538.66;7361785;19;20011;-58
2022/05/20 10:59:40;;;;;;;0.10;0.10;;;;;;;20.93;44.86;100543.94;7254765;19;2004513;-58
2022/05/20 11:02:48;;;;;;;0.10;0.10;;;;;;;20.76;45.45;100531.84;7357969;19;20039;-57
2022/05/20 11:05:16;;;;;;;;;;;;;;;20.60;45.75;100552.41;7256623;19;2004425;-57
2022/05/20 11:08:07;;;;;;;0.10;0.10;;;;;;;20.42;46.14;100542.00;7362317;19;20373;-59
2022/05/20 11:10:57;;;;;;;0.10;0.10;;;;;;;20.24;46.81;100545.88;7260958;19;2004377;-59
2022/05/20 11:13:45;;;;;;;0.00;0.00;;;;;;;20.08;47.47;100531.94;7361347;19;20006;-57
2022/05/20 11:16:26;;;;;;;0.10;0.10;;;;;;;19.91;47.85;100539.16;7360364;19;20014;-57
2022/05/20 11:19:18;;;;;;;0.00;0.00;;;;;;;19.78;48.25;100535.59;7359339;19;20412;-58
2022/05/20 11:22:25;;;;;;;0.10;0.10;;;;;;;19.63;49.54;100578.97;7234095;19;2004497;-58
2022/05/20 11:24:53;;;;;;;0.00;0.00;;;;;;;19.42;52.14;100567.88;7259224;19;2004405;-60
2022/05/20 11:27:47;;;;;;;0.10;0.10;;;;;;;19.25;52.13;100539.75;7358071;19;20054;-59
2022/05/20 11:30:13;;;;;;;0.05;0.05;;;;;;;19.03;54.71;100549.97;7267896;19;2004459;-59
2022/05/20 11:32:57;;;;;;;0.00;0.00;;;;;;;18.84;56.76;100535.19;7370915;19;20070;-58
2022/05/20 11:35:36;;;;;;;0.00;0.00;;;;;;;18.60;59.49;100552.47;7369629;19;20015;-59
2022/05/20 11:38:28;;;;;;;0.10;0.10;;;;;;;18.43;55.44;100540.22;7365377;19;20006;-59
2022/05/20 11:40:57;;;;;;;0.10;0.10;;;;;;;18.26;59.96;100541.22;7266728;19;2004520;-58
2022/05/20 11:43:50;;;;;;;0.05;0.05;;;;;;;18.09;57.06;100530.72;7365267;19;21162;-59
2022/05/20 11:46:50;;;;;;;0.00;0.00;;;;;;;18.03;58.20;100553.06;7266973;19;2004505;-59
2022/05/20 11:49:34;;;;;;;0.10;0.10;;;;;;;17.93;58.09;100532.53;7265012;19;2004661;-58
2022/05/20 11:52:02;;;;;;;0.00;0.00;;;;;;;17.77;62.11;100541.31;7365805;19;20074;-60
2022/05/20 11:54:47;;;;;;;0.00;0.00;;;;;;;17.62;61.92;100536.84;7369800;19;20010;-58
2022/05/20 11:57:17;;;;;;;0.00;0.00;;;;;;;17.54;63.53;100536.41;7364780;19;20079;-58
2022/05/20 11:59:54;;;;;;;0.00;0.00;;;;;;;17.53;61.64;100524.97;7367327;19;20027;-59
2022/05/20 12:02:22;;;;;;;0.00;0.00;;;;;;;17.47;63.35;100527.09;7367634;19;20022;-57
2022/05/20 12:04:49;;;;;;;0.00;0.00;;;;;;;17.48;63.15;100524.38;7369668;19;20741;-58
2022/05/20 12:07:18;;;;;;;0.00;0.00;;;;;;;17.51;63.69;100513.66;7366565;19;20010;-60
2022/05/20 12:09:50;;;;;;;0.00;0.00;;;;;;;17.58;64.45;100517.66;7367766;19;20074;-58
2022/05/20 12:12:22;;;;;;;0.00;0.00;;;;;;;17.69;62.81;100522.38;7366495;19;20010;-58
2022/05/20 12:15:01;;;;;;;0.00;0.00;;;;;;;17.78;61.20;100526.31;7365754;19;20014;-58